Terminal Aerodrome Forecast
Issued by NWS

Home | Current Version | Previous Version | Graphics & Text | Print | Product List | Glossary On
Versions: 1 2 3 4 5 6 7 8 9 10 11 12 13 14 15 16 17 18 19 20 21 22 23 24 25 26 27 28 29 30 31 32 33 34 35 36 37 38 39 40 41 42 43 44 45 46 47 48
000
FTUS43 KLOT 100305 AAA
TAFGYY
TAF AMD
KGYY 100305Z 1003/1024 30012G18KT 6SM -SHSN SCT025 BKN035 OVC060
      TEMPO 1003/1004 3SM -SHSN BKN025
     FM100500 30012G18KT P6SM SCT035 BKN060
     FM101300 31012G17KT P6SM SCT020 BKN250=

USA.gov is the U.S. government's official web portal to all federal, state and local government web resources and services.